Chiseldon, United Kingdom
Current Conditions -  °F | °C
As of 4:58 AM on Saturday 20 Dec 2014 (Local Time) from EGVA Reporting Station
Broken Clouds Broken Clouds  
Wind Chill: 36°   Ceiling: 4500
Heat Index: 45°   Visibility: 6mi
Dew Point: 37°   Wind: 21mph
Humidity: 74%   Direction: 270°W
Pressure: 30.21"   Gusts: NA
Location:  51.52°N, 1.73°W
Report Text: EGVA 200458Z AUTO 27018KT 9999 BKN045 07/03 A3021 RMK AO2 SLP236 T00700026
Loading
Personal Weather Stations






























Interactive Weather Map New forecast layout! Learn more

10-Day Weather Forecast

Advertisements
Track Severe Weather on mobile